createdAt,value
2022-11-29T00:01:40.137Z,4.20
2022-11-29T00:04:10.329Z,4.20
2022-11-29T00:06:39.081Z,4.20
2022-11-29T00:09:08.791Z,4.20
2022-11-29T00:11:55.800Z,4.20
2022-11-29T00:14:25.138Z,4.20
2022-11-29T00:16:54.545Z,4.20
2022-11-29T00:19:24.173Z,4.20
2022-11-29T00:21:52.461Z,4.20
2022-11-29T00:24:20.686Z,4.20
2022-11-29T00:26:48.870Z,4.20
2022-11-29T00:29:17.029Z,4.20
2022-11-29T00:31:45.747Z,4.20
2022-11-29T00:34:14.265Z,4.20
2022-11-29T00:36:43.721Z,4.20
2022-11-29T00:39:12.942Z,4.20
2022-11-29T00:41:41.442Z,4.20
2022-11-29T00:44:13.892Z,4.30
2022-11-29T00:46:43.496Z,4.30
2022-11-29T00:49:11.564Z,4.30
2022-11-29T00:51:39.803Z,4.30
2022-11-29T00:54:09.177Z,4.30
2022-11-29T00:56:37.250Z,4.30
2022-11-29T00:59:05.283Z,4.30
2022-11-29T01:01:33.537Z,4.40
2022-11-29T01:04:01.792Z,4.40
2022-11-29T01:06:29.967Z,4.40
2022-11-29T01:08:58.070Z,4.40
2022-11-29T01:11:28.824Z,4.40
2022-11-29T01:13:59.824Z,4.40
2022-11-29T01:16:29.024Z,4.40
2022-11-29T01:18:57.280Z,4.40
2022-11-29T01:21:26.006Z,4.30
2022-11-29T01:23:55.214Z,4.40
2022-11-29T01:26:25.634Z,4.30
2022-11-29T01:28:56.743Z,4.30
2022-11-29T01:31:27.045Z,4.40
2022-11-29T01:33:55.934Z,4.40
2022-11-29T01:36:24.564Z,4.40
2022-11-29T01:38:53.199Z,4.40
2022-11-29T01:41:23.212Z,4.40
2022-11-29T01:44:05.280Z,4.40
2022-11-29T01:46:35.745Z,4.40
2022-11-29T01:49:08.719Z,4.40
2022-11-29T01:51:38.455Z,4.40
2022-11-29T01:54:09.337Z,4.40
2022-11-29T01:56:38.787Z,4.50
2022-11-29T01:59:11.418Z,4.40
2022-11-29T02:01:39.857Z,4.40
2022-11-29T02:04:09.303Z,4.40
2022-11-29T02:06:38.156Z,4.50
2022-11-29T02:09:17.246Z,4.50
2022-11-29T02:11:59.765Z,4.50
2022-11-29T02:14:41.111Z,4.40
2022-11-29T02:17:16.063Z,4.40
2022-11-29T02:20:17.926Z,4.40
2022-11-29T02:22:51.422Z,4.40
2022-11-29T02:25:40.798Z,4.40
2022-11-29T02:28:42.648Z,4.40
2022-11-29T02:31:53.148Z,4.40
2022-11-29T02:34:48.173Z,4.40
2022-11-29T02:37:42.805Z,4.40
2022-11-29T02:40:29.735Z,4.40
2022-11-29T02:43:40.912Z,4.40
2022-11-29T02:46:28.984Z,4.40
2022-11-29T02:49:04.908Z,4.40
2022-11-29T02:51:42.694Z,4.40
2022-11-29T02:54:20.423Z,4.40
2022-11-29T02:56:56.249Z,4.40
2022-11-29T02:59:38.519Z,4.40
2022-11-29T03:02:18.276Z,4.40
2022-11-29T03:04:51.481Z,4.40
2022-11-29T03:07:32.633Z,4.40
2022-11-29T03:10:09.592Z,4.40
2022-11-29T03:12:42.636Z,4.50
2022-11-29T03:15:27.745Z,4.50
2022-11-29T03:18:26.814Z,4.50
2022-11-29T03:21:05.500Z,4.50
2022-11-29T03:23:39.135Z,4.50
2022-11-29T03:26:11.095Z,4.50
2022-11-29T03:28:44.330Z,4.50
2022-11-29T03:31:18.750Z,4.50
2022-11-29T03:34:11.269Z,4.50
2022-11-29T03:36:45.534Z,4.50
2022-11-29T03:39:25.787Z,4.50
2022-11-29T03:41:58.506Z,4.50
2022-11-29T03:44:32.895Z,4.50
2022-11-29T03:47:05.578Z,4.50
2022-11-29T03:49:38.764Z,4.60
2022-11-29T03:52:14.400Z,4.50
2022-11-29T03:54:56.301Z,4.50
2022-11-29T03:57:35.318Z,4.50
2022-11-29T04:00:06.883Z,4.50
2022-11-29T04:03:14.586Z,4.50
2022-11-29T04:06:04.018Z,4.50
2022-11-29T04:08:56.173Z,4.50
2022-11-29T04:11:55.772Z,4.50
2022-11-29T04:14:51.064Z,4.50
2022-11-29T04:17:45.919Z,4.50
2022-11-29T04:20:47.962Z,4.50
2022-11-29T04:23:37.998Z,4.50
2022-11-29T04:26:34.661Z,4.50
2022-11-29T04:29:15.180Z,4.40
2022-11-29T04:32:04.367Z,4.40
2022-11-29T04:35:00.026Z,4.40
2022-11-29T04:37:45.455Z,4.40
2022-11-29T04:40:29.158Z,4.40
2022-11-29T04:43:14.696Z,4.40
2022-11-29T04:46:14.147Z,4.40
2022-11-29T04:49:13.357Z,4.50
2022-11-29T04:51:58.070Z,4.50
2022-11-29T04:54:33.492Z,4.50
2022-11-29T04:57:09.449Z,4.40
2022-11-29T04:59:44.383Z,4.40
2022-11-29T05:02:23.268Z,4.40
2022-11-29T05:04:59.297Z,4.40
2022-11-29T05:07:34.038Z,4.50
2022-11-29T05:10:26.528Z,4.50
2022-11-29T05:13:06.205Z,4.40
2022-11-29T05:16:03.512Z,4.50
2022-11-29T05:18:55.388Z,4.50
2022-11-29T05:21:30.526Z,4.40
2022-11-29T05:24:08.233Z,4.50
2022-11-29T05:26:44.902Z,4.40
2022-11-29T05:29:17.677Z,4.40
2022-11-29T05:31:58.614Z,4.50
2022-11-29T05:34:42.506Z,4.50
2022-11-29T05:37:22.750Z,4.50
2022-11-29T05:40:03.736Z,4.40
2022-11-29T05:42:49.841Z,4.50
2022-11-29T05:45:24.665Z,4.40
2022-11-29T05:48:00.537Z,4.40
2022-11-29T05:51:07.316Z,4.50
2022-11-29T05:53:42.740Z,4.50
2022-11-29T05:56:16.181Z,4.50
2022-11-29T05:58:51.058Z,4.50
2022-11-29T06:01:24.056Z,4.50
2022-11-29T06:03:58.194Z,4.50
2022-11-29T06:06:34.831Z,4.50
2022-11-29T06:09:12.497Z,4.50
2022-11-29T06:11:46.083Z,4.50
2022-11-29T06:14:34.275Z,4.60
2022-11-29T06:17:20.124Z,4.50
2022-11-29T06:20:04.287Z,4.50
2022-11-29T06:23:01.671Z,4.50
2022-11-29T06:25:44.254Z,4.50
2022-11-29T06:28:28.199Z,4.60
2022-11-29T06:31:03.678Z,4.50
2022-11-29T06:33:39.512Z,4.60
2022-11-29T06:36:19.880Z,4.60
2022-11-29T06:38:49.721Z,4.60
2022-11-29T06:41:21.308Z,4.60
2022-11-29T06:43:50.016Z,4.60
2022-11-29T06:46:27.946Z,4.50
2022-11-29T06:49:04.615Z,4.50
2022-11-29T06:51:38.843Z,4.50
2022-11-29T06:54:20.558Z,4.50
2022-11-29T06:56:54.692Z,4.50
2022-11-29T06:59:36.778Z,4.50
2022-11-29T07:02:20.433Z,4.50
2022-11-29T07:05:03.832Z,4.50
2022-11-29T07:07:34.255Z,4.50
2022-11-29T07:10:15.123Z,4.50
2022-11-29T07:12:44.055Z,4.60
2022-11-29T07:15:15.860Z,4.60
2022-11-29T07:17:59.761Z,4.60
2022-11-29T07:20:35.486Z,4.60
2022-11-29T07:23:11.986Z,4.60
2022-11-29T07:25:52.981Z,4.70
2022-11-29T07:28:33.363Z,4.70
2022-11-29T07:31:10.486Z,4.70
2022-11-29T07:33:48.583Z,4.80
2022-11-29T07:36:25.230Z,4.80
2022-11-29T07:39:04.194Z,4.80
2022-11-29T07:41:43.337Z,4.80
2022-11-29T07:44:21.349Z,4.80
2022-11-29T07:46:49.469Z,4.80
2022-11-29T07:49:17.697Z,4.90
2022-11-29T07:51:46.029Z,4.90
2022-11-29T07:54:18.864Z,4.90
2022-11-29T07:56:48.404Z,5.00
2022-11-29T07:59:16.515Z,5.00
2022-11-29T08:01:44.697Z,5.00
2022-11-29T08:04:13.740Z,5.00
2022-11-29T08:06:41.878Z,5.00
2022-11-29T08:09:09.881Z,5.10
2022-11-29T08:11:38.171Z,5.10
2022-11-29T08:14:07.664Z,5.10
2022-11-29T08:16:36.638Z,5.20
2022-11-29T08:19:05.085Z,5.20
2022-11-29T08:21:33.251Z,5.20
2022-11-29T08:24:01.259Z,5.20
2022-11-29T08:26:31.859Z,5.30
2022-11-29T08:29:00.140Z,5.30
2022-11-29T08:31:29.567Z,5.30
2022-11-29T08:33:57.721Z,5.30
2022-11-29T08:36:25.990Z,5.40
2022-11-29T08:39:02.240Z,5.40
2022-11-29T08:41:34.121Z,5.40
2022-11-29T08:44:02.278Z,5.50
2022-11-29T08:46:45.528Z,5.50
2022-11-29T08:49:13.782Z,5.50
2022-11-29T08:51:41.920Z,5.50
2022-11-29T08:54:09.385Z,5.60
2022-11-29T08:59:27.091Z,5.70
2022-11-29T09:01:56.534Z,5.70
2022-11-29T09:04:24.834Z,5.70
2022-11-29T09:06:53.110Z,5.80
2022-11-29T09:09:21.130Z,5.80
2022-11-29T09:11:49.803Z,5.80
2022-11-29T09:14:19.333Z,5.90
2022-11-29T09:16:47.344Z,5.90
2022-11-29T09:19:16.934Z,5.90
2022-11-29T09:21:44.998Z,5.90
2022-11-29T09:24:13.000Z,6.00
2022-11-29T09:26:42.233Z,6.10
2022-11-29T09:29:11.505Z,6.10
2022-11-29T09:31:39.686Z,6.10
2022-11-29T09:34:07.990Z,6.20
2022-11-29T09:36:37.528Z,6.20
2022-11-29T09:39:05.584Z,6.30
2022-11-29T09:41:48.694Z,6.30
2022-11-29T09:44:22.819Z,6.40
2022-11-29T09:46:58.934Z,6.40
2022-11-29T09:49:45.957Z,6.50
2022-11-29T09:52:25.006Z,6.50
2022-11-29T09:55:01.668Z,6.60
2022-11-29T09:57:31.825Z,6.70
2022-11-29T10:00:04.348Z,6.70
2022-11-29T10:02:39.438Z,6.70
2022-11-29T10:05:13.741Z,6.80
2022-11-29T10:07:48.649Z,6.80
2022-11-29T10:10:23.686Z,6.80
2022-11-29T10:12:56.759Z,6.80
2022-11-29T10:15:28.329Z,6.90
2022-11-29T10:18:02.329Z,6.90
2022-11-29T10:20:39.191Z,6.90
2022-11-29T10:23:21.956Z,6.90
2022-11-29T10:25:52.707Z,7.00
2022-11-29T10:28:23.552Z,7.00
2022-11-29T10:31:18.630Z,7.00
2022-11-29T10:33:47.835Z,7.00
2022-11-29T10:36:22.163Z,7.00
2022-11-29T10:38:53.138Z,7.00
2022-11-29T10:41:23.640Z,7.10
2022-11-29T10:43:52.941Z,7.10
2022-11-29T10:46:29.445Z,7.10
2022-11-29T10:48:59.826Z,7.10
2022-11-29T10:51:28.371Z,7.20
2022-11-29T10:54:04.632Z,7.20
2022-11-29T10:56:37.643Z,7.20
2022-11-29T10:59:11.936Z,7.20
2022-11-29T11:01:43.446Z,7.20
2022-11-29T11:04:17.732Z,7.20
2022-11-29T11:06:47.804Z,7.10
2022-11-29T11:09:21.892Z,7.10
2022-11-29T11:11:55.311Z,7.10
2022-11-29T11:14:26.289Z,7.10
2022-11-29T11:16:54.773Z,7.10
2022-11-29T11:19:30.282Z,7.10
2022-11-29T11:21:59.861Z,7.00
2022-11-29T11:24:32.052Z,7.00
2022-11-29T11:27:02.146Z,7.00
2022-11-29T11:29:36.251Z,7.00
2022-11-29T11:32:05.904Z,7.00
2022-11-29T11:34:35.361Z,6.90
2022-11-29T11:37:21.120Z,6.90
2022-11-29T11:39:52.262Z,6.90
2022-11-29T11:42:39.511Z,6.90
2022-11-29T11:45:28.342Z,6.90
2022-11-29T11:47:58.874Z,6.90
2022-11-29T11:50:30.661Z,6.90
2022-11-29T11:53:04.420Z,6.90
2022-11-29T11:55:38.976Z,6.90
2022-11-29T11:58:18.754Z,6.90
2022-11-29T12:01:06.016Z,6.90
2022-11-29T12:03:40.802Z,6.80
2022-11-29T12:06:27.071Z,6.80
2022-11-29T12:09:02.141Z,6.80
2022-11-29T12:11:38.249Z,6.80
2022-11-29T12:14:35.323Z,6.80
2022-11-29T12:17:19.621Z,6.90
2022-11-29T12:20:00.349Z,6.80
2022-11-29T12:22:35.195Z,6.80
2022-11-29T12:25:10.284Z,6.80
2022-11-29T12:27:39.707Z,6.80
2022-11-29T12:30:14.046Z,6.80
2022-11-29T12:32:53.584Z,6.80
2022-11-29T12:36:09.709Z,6.80
2022-11-29T12:39:12.137Z,6.80
2022-11-29T12:41:52.475Z,6.80
2022-11-29T12:44:36.577Z,6.80
2022-11-29T12:50:12.908Z,6.80
2022-11-29T12:52:48.929Z,6.70
2022-11-29T12:55:27.209Z,6.80
2022-11-29T12:58:05.684Z,6.70
2022-11-29T13:00:47.600Z,6.70
2022-11-29T13:03:22.225Z,6.70
2022-11-29T13:05:58.660Z,6.70
2022-11-29T13:08:51.570Z,6.60
2022-11-29T13:11:24.651Z,6.60
2022-11-29T13:14:13.785Z,6.60
2022-11-29T13:16:53.757Z,6.70
2022-11-29T13:19:28.515Z,6.60
2022-11-29T13:22:02.434Z,6.60
2022-11-29T13:24:41.149Z,6.60
2022-11-29T13:27:17.000Z,6.60
2022-11-29T13:29:45.261Z,6.60
2022-11-29T13:32:28.712Z,6.60
2022-11-29T13:35:01.561Z,6.60
2022-11-29T13:37:33.856Z,6.60
2022-11-29T13:40:18.061Z,6.60
2022-11-29T13:42:51.051Z,6.60
2022-11-29T13:45:23.674Z,6.70
2022-11-29T13:47:54.981Z,6.60
2022-11-29T13:50:39.881Z,6.70
2022-11-29T13:53:15.729Z,6.60
2022-11-29T13:56:13.976Z,6.60
2022-11-29T13:58:42.288Z,6.60
2022-11-29T14:01:12.676Z,6.60
2022-11-29T14:03:43.843Z,6.60
2022-11-29T14:06:14.903Z,6.70
2022-11-29T14:09:18.411Z,6.60
2022-11-29T14:11:50.229Z,6.60
2022-11-29T14:14:26.931Z,6.50
2022-11-29T14:16:59.595Z,6.50
2022-11-29T14:19:33.771Z,6.50
2022-11-29T14:22:30.349Z,6.40
2022-11-29T14:25:49.681Z,6.30
2022-11-29T14:28:33.344Z,6.20
2022-11-29T14:31:02.608Z,6.20
2022-11-29T14:33:54.616Z,6.20
2022-11-29T14:36:42.854Z,6.20
2022-11-29T14:39:31.137Z,6.30
2022-11-29T14:42:17.005Z,6.30
2022-11-29T14:44:50.922Z,6.30
2022-11-29T14:47:26.423Z,6.30
2022-11-29T14:49:56.714Z,6.20
2022-11-29T14:52:32.573Z,6.20
2022-11-29T14:55:08.935Z,6.20
2022-11-29T14:58:13.753Z,6.20
2022-11-29T15:01:10.771Z,6.20
2022-11-29T15:03:49.852Z,6.10
2022-11-29T15:06:27.030Z,6.10
2022-11-29T15:09:06.887Z,6.00
2022-11-29T15:11:47.908Z,6.10
2022-11-29T15:14:21.429Z,6.10
2022-11-29T15:17:13.413Z,6.10
2022-11-29T15:20:08.937Z,6.10
2022-11-29T15:22:47.937Z,6.20
2022-11-29T15:25:19.382Z,6.20
2022-11-29T15:27:54.819Z,6.20
2022-11-29T15:30:30.443Z,6.20
2022-11-29T15:32:59.743Z,6.20
2022-11-29T15:35:28.180Z,6.20
2022-11-29T15:37:56.730Z,6.20
2022-11-29T15:40:33.011Z,6.20
2022-11-29T15:43:14.225Z,6.20
2022-11-29T15:45:48.338Z,6.20
2022-11-29T15:48:22.175Z,6.20
2022-11-29T15:51:05.170Z,6.20
2022-11-29T15:53:38.084Z,6.20
2022-11-29T15:56:14.783Z,6.20
2022-11-29T15:58:44.576Z,6.20
2022-11-29T16:01:19.999Z,6.20
2022-11-29T16:03:54.256Z,6.20
2022-11-29T16:06:28.015Z,6.30
2022-11-29T16:08:56.394Z,6.30
2022-11-29T16:11:28.744Z,6.30
2022-11-29T16:14:04.308Z,6.20
2022-11-29T16:16:35.391Z,6.30
2022-11-29T16:19:17.616Z,6.30
2022-11-29T16:21:45.934Z,6.20
2022-11-29T16:24:20.449Z,6.20
2022-11-29T16:26:51.789Z,6.20
2022-11-29T16:29:24.519Z,6.20
2022-11-29T16:31:53.150Z,6.20
2022-11-29T16:34:27.518Z,6.20
2022-11-29T16:37:05.145Z,6.20
2022-11-29T16:39:35.481Z,6.20
2022-11-29T16:42:08.411Z,6.20
2022-11-29T16:45:03.028Z,6.20
2022-11-29T16:47:32.787Z,6.20
2022-11-29T16:50:20.179Z,6.20
2022-11-29T16:52:53.449Z,6.20
2022-11-29T16:55:24.649Z,6.20
2022-11-29T16:57:54.073Z,6.20
2022-11-29T17:00:32.026Z,6.20
2022-11-29T17:03:00.834Z,6.20
2022-11-29T17:05:28.987Z,6.20
2022-11-29T17:07:57.426Z,6.20
2022-11-29T17:10:26.586Z,6.20
2022-11-29T17:12:56.109Z,6.20
2022-11-29T17:15:24.520Z,6.20
2022-11-29T17:17:52.564Z,6.20
2022-11-29T17:20:20.711Z,6.20
2022-11-29T17:22:48.870Z,6.20
2022-11-29T17:25:17.096Z,6.10
2022-11-29T17:27:45.201Z,6.10
2022-11-29T17:30:15.521Z,6.10
2022-11-29T17:32:43.676Z,6.10
2022-11-29T17:35:11.687Z,6.10
2022-11-29T17:37:39.796Z,6.10
2022-11-29T17:40:09.570Z,6.10
2022-11-29T17:42:37.705Z,6.10
2022-11-29T17:45:06.203Z,6.10
2022-11-29T17:47:35.622Z,6.10
2022-11-29T17:50:09.636Z,6.10
2022-11-29T17:52:39.174Z,6.10
2022-11-29T17:55:08.439Z,6.10
2022-11-29T17:57:36.576Z,6.10
2022-11-29T18:00:06.731Z,6.10
2022-11-29T18:02:36.204Z,6.20
2022-11-29T18:05:04.444Z,6.20
2022-11-29T18:07:32.632Z,6.20
2022-11-29T18:10:00.758Z,6.20
2022-11-29T18:12:31.272Z,6.20
2022-11-29T18:14:59.421Z,6.20
2022-11-29T18:17:27.458Z,6.20
2022-11-29T18:19:56.880Z,6.20
2022-11-29T18:22:24.963Z,6.20
2022-11-29T18:25:01.134Z,6.20
2022-11-29T18:27:38.125Z,6.20
2022-11-29T18:30:07.814Z,6.20
2022-11-29T18:32:35.839Z,6.20
2022-11-29T18:35:06.584Z,6.20
2022-11-29T18:38:13.053Z,6.20
2022-11-29T18:40:23.049Z,6.20
2022-11-29T18:42:51.079Z,6.20
2022-11-29T18:45:19.217Z,6.10
2022-11-29T18:47:47.336Z,6.20
2022-11-29T18:50:16.939Z,6.20
2022-11-29T18:52:45.049Z,6.20
2022-11-29T18:55:13.077Z,6.20
2022-11-29T18:57:41.295Z,6.20
2022-11-29T19:00:10.496Z,6.10
2022-11-29T19:02:38.650Z,6.20
2022-11-29T19:05:07.443Z,6.20
2022-11-29T19:07:36.957Z,6.20
2022-11-29T19:10:05.953Z,6.20
2022-11-29T19:12:34.070Z,6.10
2022-11-29T19:15:02.206Z,6.10
2022-11-29T19:17:30.674Z,6.10
2022-11-29T19:19:58.869Z,6.10
2022-11-29T19:22:27.000Z,6.00
2022-11-29T19:24:56.461Z,6.00
2022-11-29T19:27:26.073Z,6.00
2022-11-29T19:29:54.164Z,6.00
2022-11-29T19:32:22.247Z,6.00
2022-11-29T19:34:50.343Z,6.00
2022-11-29T19:37:18.617Z,6.00
2022-11-29T19:39:47.219Z,6.00
2022-11-29T19:42:16.849Z,6.00
2022-11-29T19:45:15.325Z,5.90
2022-11-29T19:47:33.333Z,5.90
2022-11-29T19:50:02.857Z,5.90
2022-11-29T19:52:31.123Z,5.90
2022-11-29T19:54:59.739Z,5.90
2022-11-29T19:57:30.944Z,5.90
2022-11-29T19:59:59.029Z,5.90
2022-11-29T20:02:27.833Z,5.90
2022-11-29T20:04:56.046Z,5.90
2022-11-29T20:07:24.252Z,5.90
2022-11-29T20:09:52.360Z,5.90
2022-11-29T20:12:20.750Z,5.90
2022-11-29T20:14:50.285Z,5.90
2022-11-29T20:17:18.526Z,5.90
2022-11-29T20:19:46.993Z,5.90
2022-11-29T20:22:15.751Z,5.90
2022-11-29T20:24:45.773Z,5.90
2022-11-29T20:27:13.961Z,5.90
2022-11-29T20:29:42.019Z,5.90
2022-11-29T20:32:11.670Z,5.90
2022-11-29T20:34:40.403Z,5.90
2022-11-29T20:37:24.648Z,5.90
2022-11-29T20:39:58.166Z,5.90
2022-11-29T20:42:47.935Z,5.90
2022-11-29T20:45:17.321Z,5.90
2022-11-29T20:47:52.027Z,5.90
2022-11-29T20:50:23.972Z,5.90
2022-11-29T20:53:02.369Z,5.90
2022-11-29T20:55:30.625Z,5.90
2022-11-29T20:57:58.656Z,5.90
2022-11-29T21:00:27.060Z,5.90
2022-11-29T21:02:56.456Z,5.90
2022-11-29T21:05:24.691Z,5.90
2022-11-29T21:07:53.185Z,6.00
2022-11-29T21:10:21.900Z,5.90
2022-11-29T21:12:50.718Z,5.90
2022-11-29T21:15:19.890Z,6.00
2022-11-29T21:17:48.559Z,6.00
2022-11-29T21:20:22.506Z,6.00
2022-11-29T21:22:59.522Z,6.00
2022-11-29T21:25:37.388Z,5.90
2022-11-29T21:28:11.163Z,5.90
2022-11-29T21:30:39.922Z,5.90
2022-11-29T21:33:08.806Z,5.90
2022-11-29T21:35:39.787Z,5.90
2022-11-29T21:38:14.337Z,5.90
2022-11-29T21:40:42.420Z,5.90
2022-11-29T21:43:10.485Z,5.80
2022-11-29T21:45:38.604Z,5.90
2022-11-29T21:48:27.559Z,5.80
2022-11-29T21:50:57.631Z,5.80
2022-11-29T21:53:27.860Z,5.90
2022-11-29T21:55:59.728Z,5.90
2022-11-29T21:58:30.289Z,5.90
2022-11-29T22:00:58.886Z,5.90
2022-11-29T22:03:26.919Z,5.90
2022-11-29T22:06:02.369Z,5.90
2022-11-29T22:08:30.458Z,5.80
2022-11-29T22:11:02.759Z,5.90
2022-11-29T22:13:30.910Z,5.90
2022-11-29T22:16:06.805Z,5.90
2022-11-29T22:18:35.464Z,5.80
2022-11-29T22:21:07.438Z,5.80
2022-11-29T22:23:35.827Z,5.90
2022-11-29T22:26:06.020Z,5.90
2022-11-29T22:28:34.953Z,5.90
2022-11-29T22:31:05.820Z,5.90
2022-11-29T22:33:34.197Z,5.80
2022-11-29T22:36:09.959Z,5.80
2022-11-29T22:38:38.812Z,5.80
2022-11-29T22:41:08.964Z,5.80
2022-11-29T22:43:37.828Z,5.80
2022-11-29T22:46:07.388Z,5.80
2022-11-29T22:48:38.863Z,5.80
2022-11-29T22:51:10.494Z,5.80
2022-11-29T22:53:40.422Z,5.80
2022-11-29T22:56:10.756Z,5.80
2022-11-29T22:58:39.404Z,5.80
2022-11-29T23:01:09.508Z,5.80
2022-11-29T23:03:38.766Z,5.80
2022-11-29T23:06:10.641Z,5.80
2022-11-29T23:08:39.608Z,5.80
2022-11-29T23:11:09.903Z,5.80
2022-11-29T23:13:39.912Z,5.80
2022-11-29T23:16:10.180Z,5.80
2022-11-29T23:18:39.885Z,5.80
2022-11-29T23:21:11.076Z,5.70
2022-11-29T23:23:39.253Z,5.80
2022-11-29T23:26:08.787Z,5.80
2022-11-29T23:28:37.310Z,5.80
2022-11-29T23:31:05.405Z,5.80
2022-11-29T23:33:33.479Z,5.70
2022-11-29T23:36:03.800Z,5.70
2022-11-29T23:38:33.383Z,5.70
2022-11-29T23:41:01.848Z,5.70
2022-11-29T23:43:30.854Z,5.70
2022-11-29T23:45:58.996Z,5.70
2022-11-29T23:48:27.525Z,5.70
2022-11-29T23:50:55.619Z,5.70
2022-11-29T23:53:23.700Z,5.70
2022-11-29T23:55:58.828Z,5.70
2022-11-29T23:58:27.561Z,5.70
